createdAt,value
2019-04-05T00:01:39.062Z,5.47
2019-04-05T00:04:12.915Z,5.47
2019-04-05T00:06:46.631Z,6.00
2019-04-05T00:09:20.742Z,6.30
2019-04-05T00:11:54.556Z,5.70
2019-04-05T00:14:28.331Z,5.97
2019-04-05T00:17:02.092Z,6.57
2019-04-05T00:19:35.787Z,5.70
2019-04-05T00:22:10.252Z,5.70
2019-04-05T00:24:44.019Z,5.30
2019-04-05T00:27:17.766Z,4.83
2019-04-05T00:29:51.453Z,5.70
2019-04-05T00:32:25.381Z,4.67
2019-04-05T00:34:59.076Z,4.83
2019-04-05T00:37:33.097Z,6.47
2019-04-05T00:40:08.131Z,5.53
2019-04-05T00:42:42.218Z,5.00
2019-04-05T00:45:27.438Z,4.80
2019-04-05T00:47:51.545Z,5.57
2019-04-05T00:50:25.648Z,5.93
2019-04-05T00:52:59.526Z,6.60
2019-04-05T00:55:33.393Z,6.77
2019-04-05T00:58:07.187Z,7.43
2019-04-05T01:00:41.213Z,8.50
2019-04-05T01:03:14.932Z,6.90
2019-04-05T01:05:48.782Z,7.27
2019-04-05T01:08:22.764Z,5.97
2019-04-05T01:10:56.609Z,7.40
2019-04-05T01:13:30.969Z,5.97
2019-04-05T01:16:04.669Z,6.30
2019-04-05T01:18:38.655Z,7.80
2019-04-05T01:21:14.729Z,6.30
2019-04-05T01:23:50.135Z,7.33
2019-04-05T01:26:24.681Z,6.10
2019-04-05T01:28:58.504Z,6.73
2019-04-05T01:31:32.345Z,5.77
2019-04-05T01:34:06.350Z,6.63
2019-04-05T01:36:40.128Z,5.80
2019-04-05T01:39:14.137Z,5.97
2019-04-05T01:41:48.988Z,5.80
2019-04-05T01:44:23.067Z,6.00
2019-04-05T01:46:56.833Z,6.27
2019-04-05T01:49:30.543Z,5.53
2019-04-05T01:52:04.391Z,5.60
2019-04-05T01:54:38.130Z,6.07
2019-04-05T01:57:12.212Z,5.83
2019-04-05T01:59:46.215Z,5.97
2019-04-05T02:02:19.974Z,6.73
2019-04-05T02:04:53.958Z,5.87
2019-04-05T02:07:28.407Z,6.10
2019-04-05T02:10:02.325Z,6.97
2019-04-05T02:12:36.468Z,7.50
2019-04-05T02:15:10.638Z,7.53
2019-04-05T02:17:43.170Z,6.23
2019-04-05T02:20:15.810Z,7.23
2019-04-05T02:22:48.323Z,6.53
2019-04-05T02:25:21.826Z,7.10
2019-04-05T02:27:54.426Z,7.20
2019-04-05T02:30:27.338Z,7.33
2019-04-05T02:33:00.160Z,7.43
2019-04-05T02:35:32.837Z,7.40
2019-04-05T02:38:05.430Z,7.73
2019-04-05T02:40:39.786Z,7.80
2019-04-05T02:43:13.596Z,7.50
2019-04-05T02:45:47.043Z,7.60
2019-04-05T02:48:20.539Z,7.80
2019-04-05T02:50:55.226Z,8.00
2019-04-05T02:53:27.940Z,7.07
2019-04-05T02:56:03.068Z,7.47
2019-04-05T02:58:36.518Z,7.80
2019-04-05T03:01:09.767Z,7.97
2019-04-05T03:03:42.775Z,6.93
2019-04-05T03:06:15.422Z,7.83
2019-04-05T03:08:48.530Z,6.90
2019-04-05T03:11:22.615Z,6.53
2019-04-05T03:13:57.011Z,6.40
2019-04-05T03:16:41.069Z,7.07
2019-04-05T03:19:09.549Z,7.03
2019-04-05T03:21:43.652Z,6.67
2019-04-05T03:24:18.183Z,6.70
2019-04-05T03:26:56.137Z,6.13
2019-04-05T03:29:29.245Z,7.60
2019-04-05T03:32:02.451Z,6.50
2019-04-05T03:34:36.079Z,6.67
2019-04-05T03:37:08.651Z,6.73
2019-04-05T03:39:41.847Z,7.47
2019-04-05T03:42:14.784Z,7.20
2019-04-05T03:44:47.398Z,7.50
2019-04-05T03:47:20.351Z,6.90
2019-04-05T03:49:52.962Z,7.43
2019-04-05T03:52:25.677Z,7.07
2019-04-05T03:54:58.275Z,6.87
2019-04-05T03:57:31.067Z,7.80
2019-04-05T04:00:04.321Z,8.03
2019-04-05T04:02:37.258Z,6.33
2019-04-05T04:05:09.851Z,6.97
2019-04-05T04:07:43.022Z,7.60
2019-04-05T04:10:17.138Z,6.97
2019-04-05T04:12:49.861Z,7.67
2019-04-05T04:15:22.666Z,7.70
2019-04-05T04:17:55.381Z,7.03
2019-04-05T04:20:36.410Z,7.33
2019-04-05T04:23:09.832Z,6.50
2019-04-05T04:25:42.619Z,6.60
2019-04-05T04:28:15.980Z,6.10
2019-04-05T04:30:48.502Z,5.97
2019-04-05T04:33:21.145Z,7.00
2019-04-05T04:35:53.766Z,6.67
2019-04-05T04:38:26.745Z,6.87
2019-04-05T04:40:59.348Z,7.70
2019-04-05T04:43:32.378Z,6.40
2019-04-05T04:46:04.971Z,7.93
2019-04-05T04:50:54.266Z,6.83
2019-04-05T04:53:28.658Z,7.83
2019-04-05T04:56:02.483Z,7.90
2019-04-05T04:58:36.344Z,7.90
2019-04-05T05:01:10.498Z,7.80
2019-04-05T05:03:44.471Z,7.27
2019-04-05T05:06:18.369Z,7.20
2019-04-05T05:08:52.326Z,8.47
2019-04-05T05:11:26.629Z,7.90
2019-04-05T05:14:00.773Z,7.27
2019-04-05T05:16:34.703Z,7.57
2019-04-05T05:19:08.750Z,7.80
2019-04-05T05:21:43.122Z,8.10
2019-04-05T05:24:16.976Z,8.43
2019-04-05T05:26:51.159Z,9.30
2019-04-05T05:29:25.573Z,8.50
2019-04-05T05:31:59.740Z,9.10
2019-04-05T05:34:33.693Z,9.23
2019-04-05T05:37:07.568Z,8.87
2019-04-05T05:39:41.356Z,7.70
2019-04-05T05:42:15.093Z,6.37
2019-04-05T05:44:48.782Z,7.07
2019-04-05T05:47:23.009Z,6.33
2019-04-05T05:49:56.695Z,7.00
2019-04-05T05:52:31.319Z,6.30
2019-04-05T05:55:05.571Z,5.53
2019-04-05T05:57:39.311Z,6.60
2019-04-05T06:00:14.440Z,6.47
2019-04-05T06:02:48.662Z,7.00
2019-04-05T06:05:22.378Z,6.83
2019-04-05T06:07:56.137Z,6.70
2019-04-05T06:10:30.108Z,5.87
2019-04-05T06:13:06.633Z,6.83
2019-04-05T06:15:39.739Z,6.10
2019-04-05T06:18:13.543Z,6.43
2019-04-05T06:20:47.232Z,5.67
2019-04-05T06:23:32.971Z,6.63
2019-04-05T06:25:56.591Z,6.77
2019-04-05T06:28:30.414Z,8.80
2019-04-05T06:31:04.129Z,7.23
2019-04-05T06:33:37.923Z,7.00
2019-04-05T06:36:11.618Z,7.17
2019-04-05T06:38:45.368Z,6.37
2019-04-05T06:41:19.371Z,7.00
2019-04-05T06:43:53.107Z,7.93
2019-04-05T06:46:26.803Z,7.43
2019-04-05T06:49:00.536Z,7.40
2019-04-05T06:51:34.241Z,6.90
2019-04-05T06:54:08.066Z,7.10
2019-04-05T06:56:41.834Z,7.20
2019-04-05T06:59:15.563Z,7.57
2019-04-05T07:01:49.572Z,10.77
2019-04-05T07:04:23.324Z,8.20
2019-04-05T07:06:57.103Z,8.10
2019-04-05T07:09:33.948Z,7.60
2019-04-05T07:12:06.653Z,7.97
2019-04-05T07:14:40.393Z,8.13
2019-04-05T07:17:14.106Z,9.30
2019-04-05T07:19:47.829Z,8.47
2019-04-05T07:22:33.508Z,9.30
2019-04-05T07:24:57.254Z,8.80
2019-04-05T07:27:30.947Z,7.40
2019-04-05T07:30:04.988Z,7.77
2019-04-05T07:32:39.862Z,8.63
2019-04-05T07:35:13.865Z,8.03
2019-04-05T07:37:47.568Z,8.40
2019-04-05T07:40:23.007Z,7.53
2019-04-05T07:42:56.700Z,7.93
2019-04-05T07:45:30.451Z,8.20
2019-04-05T07:48:04.150Z,7.30
2019-04-05T07:50:37.886Z,7.90
2019-04-05T07:53:11.588Z,8.27
2019-04-05T07:55:45.330Z,8.73
2019-04-05T07:58:19.029Z,9.10
2019-04-05T08:00:55.140Z,8.30
2019-04-05T08:03:28.800Z,8.37
2019-04-05T08:06:03.058Z,8.30
2019-04-05T08:09:09.330Z,8.97
2019-04-05T08:11:45.422Z,7.97
2019-04-05T08:14:20.520Z,7.93
2019-04-05T08:16:54.430Z,8.13
2019-04-05T08:19:28.125Z,8.60
2019-04-05T08:22:01.859Z,8.10
2019-04-05T08:24:35.556Z,9.73
2019-04-05T08:27:09.287Z,8.17
2019-04-05T08:29:42.992Z,9.10
2019-04-05T08:32:16.728Z,8.37
2019-04-05T08:34:50.758Z,8.20
2019-04-05T08:37:24.501Z,8.77
2019-04-05T08:39:58.212Z,11.03
2019-04-05T08:42:31.979Z,9.53
2019-04-05T08:45:06.345Z,8.97
2019-04-05T08:47:40.091Z,9.40
2019-04-05T08:50:15.804Z,8.27
2019-04-05T08:52:49.879Z,8.60
2019-04-05T08:55:23.586Z,9.07
2019-04-05T08:57:57.332Z,8.40
2019-04-05T09:00:31.361Z,8.57
2019-04-05T09:03:05.195Z,9.53
2019-04-05T09:05:38.893Z,8.77
2019-04-05T09:08:12.723Z,7.07
2019-04-05T09:10:46.500Z,7.93
2019-04-05T09:13:20.245Z,8.67
2019-04-05T09:15:53.947Z,7.93
2019-04-05T09:18:27.764Z,9.10
2019-04-05T09:21:01.540Z,7.70
2019-04-05T09:23:35.727Z,8.13
2019-04-05T09:26:09.503Z,9.20
2019-04-05T09:28:43.240Z,7.27
2019-04-05T09:31:16.948Z,8.10
2019-04-05T09:33:50.986Z,8.40
2019-04-05T09:36:25.371Z,7.53
2019-04-05T09:38:59.106Z,7.30
2019-04-05T09:41:32.818Z,8.40
2019-04-05T09:44:06.897Z,8.07
2019-04-05T09:46:47.031Z,8.33
2019-04-05T09:49:16.073Z,7.30
2019-04-05T09:51:49.779Z,7.17
2019-04-05T09:54:23.779Z,6.53
2019-04-05T09:56:57.488Z,7.60
2019-04-05T09:59:31.223Z,6.47
2019-04-05T10:02:05.025Z,6.50
2019-04-05T10:04:38.758Z,6.27
2019-04-05T10:07:12.533Z,6.27
2019-04-05T10:09:46.260Z,7.43
2019-04-05T10:12:19.968Z,5.87
2019-04-05T10:14:53.716Z,6.70
2019-04-05T10:17:27.420Z,6.27
2019-04-05T10:20:01.177Z,6.10
2019-04-05T10:22:34.883Z,5.53
2019-04-05T10:25:08.865Z,5.73
2019-04-05T10:27:42.573Z,6.27
2019-04-05T10:30:17.255Z,5.83
2019-04-05T10:32:50.972Z,6.40
2019-04-05T10:35:24.876Z,6.20
2019-04-05T10:37:58.649Z,7.10
2019-04-05T10:40:32.683Z,6.37
2019-04-05T10:43:06.531Z,6.77
2019-04-05T10:45:40.523Z,6.67
2019-04-05T10:48:14.239Z,7.37
2019-04-05T10:50:48.405Z,7.13
2019-04-05T10:53:22.109Z,6.27
2019-04-05T10:55:55.851Z,6.97
2019-04-05T10:58:29.557Z,7.33
2019-04-05T11:01:03.352Z,6.30
2019-04-05T11:03:37.044Z,5.37
2019-04-05T11:06:10.823Z,6.37
2019-04-05T11:08:44.765Z,5.77
2019-04-05T11:11:18.566Z,6.40
2019-04-05T11:13:52.563Z,6.37
2019-04-05T11:16:26.282Z,6.20
2019-04-05T11:19:01.904Z,6.07
2019-04-05T11:21:35.497Z,4.70
2019-04-05T11:24:09.593Z,6.13
2019-04-05T11:26:43.314Z,5.60
2019-04-05T11:29:17.080Z,4.63
2019-04-05T11:31:57.345Z,6.33
2019-04-05T11:34:26.606Z,5.70
2019-04-05T11:37:02.836Z,5.23
2019-04-05T11:39:37.320Z,5.60
2019-04-05T11:42:11.317Z,5.47
2019-04-05T11:44:48.358Z,5.30
2019-04-05T11:47:22.266Z,5.63
2019-04-05T11:49:57.710Z,4.70
2019-04-05T11:52:31.576Z,4.80
2019-04-05T11:55:05.977Z,5.53
2019-04-05T11:57:41.422Z,4.90
2019-04-05T12:00:20.357Z,4.93
2019-04-05T12:02:58.068Z,3.87
2019-04-05T12:05:31.769Z,4.07
2019-04-05T12:08:06.537Z,5.53
2019-04-05T12:10:40.319Z,4.80
2019-04-05T12:13:14.041Z,4.33
2019-04-05T12:15:47.810Z,4.70
2019-04-05T12:18:21.718Z,3.90
2019-04-05T12:21:00.010Z,5.30
2019-04-05T12:23:33.388Z,5.10
2019-04-05T12:26:06.967Z,4.33
2019-04-05T12:28:40.952Z,4.17
2019-04-05T12:31:15.393Z,5.40
2019-04-05T12:33:51.352Z,5.23
2019-04-05T12:36:24.543Z,5.10
2019-04-05T12:38:58.288Z,4.07
2019-04-05T12:41:31.993Z,4.07
2019-04-05T12:44:05.873Z,4.30
2019-04-05T12:46:39.646Z,4.13
2019-04-05T12:49:15.313Z,4.00
2019-04-05T12:51:49.189Z,4.30
2019-04-05T12:54:22.928Z,3.60
2019-04-05T12:56:58.131Z,3.90
2019-04-05T12:59:32.075Z,3.97
2019-04-05T13:02:05.837Z,3.67
2019-04-05T13:04:39.585Z,3.40
2019-04-05T13:07:13.269Z,4.50
2019-04-05T13:09:47.126Z,3.70
2019-04-05T13:12:20.822Z,3.77
2019-04-05T13:14:56.741Z,7.57
2019-04-05T13:17:31.326Z,4.30
2019-04-05T13:20:06.472Z,5.03
2019-04-05T13:22:40.177Z,5.93
2019-04-05T13:25:13.968Z,4.30
2019-04-05T13:27:47.661Z,4.40
2019-04-05T13:30:21.560Z,4.47
2019-04-05T13:32:55.339Z,3.80
2019-04-05T13:35:29.055Z,4.60
2019-04-05T13:38:02.750Z,3.93
2019-04-05T13:40:36.658Z,4.17
2019-04-05T13:43:10.748Z,4.20
2019-04-05T13:45:44.477Z,3.97
2019-04-05T13:48:18.175Z,4.53
2019-04-05T13:50:51.893Z,3.70
2019-04-05T13:53:25.870Z,3.60
2019-04-05T13:55:59.708Z,3.80
2019-04-05T13:58:33.397Z,4.17
2019-04-05T14:01:07.329Z,4.97
2019-04-05T14:03:41.016Z,6.00
2019-04-05T14:06:14.856Z,6.40
2019-04-05T14:08:48.550Z,5.43
2019-04-05T14:11:22.270Z,6.20
2019-04-05T14:13:55.962Z,5.13
2019-04-05T14:16:29.946Z,6.13
2019-04-05T14:19:03.714Z,4.97
2019-04-05T14:21:40.824Z,6.00
2019-04-05T14:24:13.141Z,5.00
2019-04-05T14:26:46.889Z,4.10
2019-04-05T14:29:20.699Z,4.23
2019-04-05T14:31:54.602Z,4.27
2019-04-05T14:34:28.601Z,6.00
2019-04-05T14:37:02.338Z,4.83
2019-04-05T14:39:36.034Z,4.97
2019-04-05T14:42:12.356Z,4.63
2019-04-05T14:44:45.333Z,4.47
2019-04-05T14:47:20.051Z,4.43
2019-04-05T14:49:53.749Z,3.83
2019-04-05T14:52:28.854Z,4.90
2019-04-05T14:55:03.073Z,6.00
2019-04-05T14:57:37.885Z,5.33
2019-04-05T15:00:15.021Z,5.47
2019-04-05T15:02:48.009Z,4.40
2019-04-05T15:05:21.700Z,6.13
2019-04-05T15:07:55.765Z,5.63
2019-04-05T15:10:29.726Z,5.47
2019-04-05T15:13:03.436Z,5.50
2019-04-05T15:15:37.122Z,6.40
2019-04-05T15:18:12.497Z,5.77
2019-04-05T15:20:46.263Z,6.67
2019-04-05T15:23:20.045Z,6.13
2019-04-05T15:25:53.733Z,5.70
2019-04-05T15:28:27.540Z,4.43
2019-04-05T15:31:01.228Z,5.80
2019-04-05T15:33:34.969Z,5.63
2019-04-05T15:36:08.658Z,5.83
2019-04-05T15:38:42.479Z,5.13
2019-04-05T15:41:16.326Z,5.73
2019-04-05T15:43:50.429Z,6.60
2019-04-05T15:46:25.237Z,8.23
2019-04-05T15:48:58.944Z,5.80
2019-04-05T15:51:32.908Z,5.87
2019-04-05T15:54:06.760Z,6.97
2019-04-05T15:56:41.149Z,6.97
2019-04-05T15:59:14.980Z,8.00
2019-04-05T16:01:48.746Z,7.40
2019-04-05T16:04:22.964Z,7.60
2019-04-05T16:06:57.056Z,7.73
2019-04-05T16:09:31.225Z,7.40
2019-04-05T16:12:05.252Z,6.80
2019-04-05T16:14:39.013Z,7.10
2019-04-05T16:17:13.038Z,7.50
2019-04-05T16:19:47.150Z,6.93
2019-04-05T16:22:30.788Z,7.17
2019-04-05T16:24:56.299Z,7.57
2019-04-05T16:27:30.410Z,7.17
2019-04-05T16:30:04.983Z,7.10
2019-04-05T16:32:39.069Z,8.07
2019-04-05T16:35:14.834Z,8.20
2019-04-05T16:37:48.619Z,7.73
2019-04-05T16:40:22.728Z,7.07
2019-04-05T16:43:02.845Z,7.27
2019-04-05T16:45:32.046Z,6.83
2019-04-05T16:48:05.885Z,7.27
2019-04-05T16:50:42.177Z,7.77
2019-04-05T16:53:15.060Z,7.03
2019-04-05T16:55:49.080Z,7.97
2019-04-05T17:00:56.189Z,7.77
2019-04-05T17:03:29.898Z,8.77
2019-04-05T17:06:03.951Z,7.27
2019-04-05T17:08:37.643Z,6.83
2019-04-05T17:11:11.388Z,7.00
2019-04-05T17:13:45.520Z,7.37
2019-04-05T17:16:19.258Z,7.77
2019-04-05T17:18:52.955Z,7.57
2019-04-05T17:21:26.749Z,8.00
2019-04-05T17:24:00.462Z,16.43
2019-04-05T17:26:34.802Z,20.97
2019-04-05T17:29:08.501Z,8.20
2019-04-05T17:31:42.237Z,8.30
2019-04-05T17:34:16.000Z,6.73
2019-04-05T17:36:49.783Z,6.47
2019-04-05T17:39:23.478Z,7.17
2019-04-05T17:41:57.225Z,8.73
2019-04-05T17:44:30.924Z,7.40
2019-04-05T17:47:04.808Z,6.90
2019-04-05T17:49:38.535Z,7.40
2019-04-05T17:52:12.631Z,7.50
2019-04-05T17:54:46.332Z,6.70
2019-04-05T17:57:20.707Z,7.03
2019-04-05T17:59:54.550Z,6.07
2019-04-05T18:02:28.755Z,6.90
2019-04-05T18:05:02.467Z,5.93
2019-04-05T18:07:36.261Z,6.30
2019-04-05T18:10:10.100Z,6.93
2019-04-05T18:12:43.835Z,6.37
2019-04-05T18:15:17.825Z,7.77
2019-04-05T18:17:51.547Z,8.40
2019-04-05T18:20:25.309Z,9.20
2019-04-05T18:22:59.042Z,7.97
2019-04-05T18:25:32.797Z,6.20
2019-04-05T18:28:06.543Z,8.60
2019-04-05T18:30:40.230Z,8.60
2019-04-05T18:33:13.953Z,7.50
2019-04-05T18:35:47.655Z,9.40
2019-04-05T18:38:21.382Z,8.33
2019-04-05T18:40:55.077Z,7.87
2019-04-05T18:43:29.065Z,9.40
2019-04-05T18:46:02.761Z,8.87
2019-04-05T18:48:36.743Z,8.87
2019-04-05T18:51:10.451Z,7.83
2019-04-05T18:53:44.212Z,7.23
2019-04-05T18:56:17.916Z,7.60
2019-04-05T18:58:51.655Z,8.70
2019-04-05T19:01:25.632Z,9.73
2019-04-05T19:03:59.679Z,10.03
2019-04-05T19:06:33.460Z,999.90
2019-04-05T19:09:08.287Z,999.90
2019-04-05T19:11:41.970Z,999.90
2019-04-05T19:14:15.699Z,999.90
2019-04-05T19:16:49.696Z,999.90
2019-04-05T19:19:23.494Z,999.90
2019-04-05T19:21:57.210Z,999.90
2019-04-05T19:24:31.214Z,999.90
2019-04-05T19:27:05.085Z,999.90
2019-04-05T19:29:38.827Z,999.90
2019-04-05T19:50:22.408Z,999.90
2019-04-05T19:52:56.527Z,999.90
2019-04-05T19:55:30.352Z,999.90
2019-04-05T19:58:04.152Z,999.90
2019-04-05T20:00:37.911Z,999.90
2019-04-05T20:03:11.628Z,999.90
2019-04-05T20:05:45.448Z,999.90
2019-04-05T20:08:19.431Z,999.90
2019-04-05T20:10:53.544Z,999.90
2019-04-05T20:13:27.222Z,999.90
2019-04-05T20:16:01.395Z,999.90
2019-04-05T20:18:35.156Z,999.90
2019-04-05T20:21:09.088Z,999.90
2019-04-05T20:23:47.488Z,999.90
2019-04-05T20:26:18.289Z,999.90
2019-04-05T20:28:52.007Z,999.90
2019-04-05T20:31:26.110Z,999.90
2019-04-05T20:33:59.768Z,999.90
2019-04-05T20:36:33.857Z,999.90
2019-04-05T20:39:08.195Z,999.90
2019-04-05T20:41:41.967Z,999.90
2019-04-05T20:44:15.678Z,999.90
2019-04-05T20:46:49.420Z,999.90
2019-04-05T20:49:23.126Z,999.90
2019-04-05T20:51:57.498Z,999.90
2019-04-05T20:54:31.553Z,999.90
2019-04-05T20:57:05.454Z,999.90
2019-04-05T20:59:39.155Z,999.90
2019-04-05T21:02:12.899Z,999.90
2019-04-05T21:04:46.616Z,999.90
2019-04-05T21:07:20.352Z,999.90
2019-04-05T21:09:54.154Z,999.90
2019-04-05T21:12:27.889Z,999.90
2019-04-05T21:15:01.606Z,999.90
2019-04-05T21:17:35.388Z,999.90
2019-04-05T21:20:09.444Z,999.90
2019-04-05T21:22:43.204Z,999.90
2019-04-05T21:25:16.917Z,999.90
2019-04-05T21:27:50.754Z,999.90
2019-04-05T21:30:24.473Z,999.90
2019-04-05T21:32:58.525Z,999.90
2019-04-05T21:35:32.535Z,999.90
2019-04-05T21:38:06.426Z,999.90
2019-04-05T21:40:40.189Z,999.90
2019-04-05T21:43:14.314Z,999.90
2019-04-05T21:45:48.077Z,999.90
2019-04-05T21:48:21.877Z,999.90
2019-04-05T21:50:55.736Z,999.90
2019-04-05T21:53:30.139Z,999.90
2019-04-05T21:56:03.911Z,999.90
2019-04-05T21:58:37.720Z,999.90
2019-04-05T22:01:11.969Z,999.90
2019-04-05T22:03:45.874Z,999.90
2019-04-05T22:06:19.635Z,999.90
2019-04-05T22:08:53.772Z,999.90
2019-04-05T22:11:28.000Z,999.90
2019-04-05T22:14:01.868Z,999.90
2019-04-05T22:16:35.927Z,999.90
2019-04-05T22:19:09.670Z,999.90
2019-04-05T22:21:43.476Z,999.90
2019-04-05T22:24:17.272Z,999.90
2019-04-05T22:26:51.069Z,999.90
2019-04-05T22:29:24.914Z,999.90
2019-04-05T22:31:58.693Z,999.90
2019-04-05T22:34:32.815Z,999.90
2019-04-05T22:37:06.597Z,999.90
2019-04-05T22:39:40.457Z,999.90
2019-04-05T22:42:14.307Z,999.90
2019-04-05T22:44:48.155Z,999.90
2019-04-05T22:47:21.952Z,999.90
2019-04-05T22:49:55.833Z,999.90
2019-04-05T22:52:29.623Z,999.90
2019-04-05T22:55:11.008Z,999.90
2019-04-05T22:57:39.360Z,999.90
2019-04-05T23:00:14.710Z,999.90
2019-04-05T23:02:48.501Z,999.90
2019-04-05T23:05:22.327Z,999.90
2019-04-05T23:07:56.121Z,999.90
2019-04-05T23:10:29.955Z,999.90
2019-04-05T23:13:03.743Z,999.90
2019-04-05T23:15:37.817Z,999.90
2019-04-05T23:18:11.621Z,999.90
2019-04-05T23:20:45.492Z,999.90
2019-04-05T23:23:19.290Z,999.90
2019-04-05T23:25:53.455Z,999.90
2019-04-05T23:28:27.237Z,999.90
2019-04-05T23:31:01.077Z,999.90
2019-04-05T23:33:34.872Z,999.90
2019-04-05T23:36:08.683Z,999.90
2019-04-05T23:38:42.707Z,999.90
2019-04-05T23:41:16.553Z,999.90
2019-04-05T23:43:50.673Z,999.90
2019-04-05T23:46:24.909Z,999.90
2019-04-05T23:48:58.698Z,999.90
2019-04-05T23:51:32.527Z,999.90
2019-04-05T23:54:06.313Z,999.90
2019-04-05T23:56:40.427Z,999.90
2019-04-05T23:59:14.344Z,999.90
